sensor_id;sensor_type;location;lat;lon;timestamp;pressure;altitude;pressure_sealevel;temperature;humidity
73974;BME280;62336;-26.094;27.994;2023-08-06T00:00:26;85904.86;;;20.77;16.85
73974;BME280;62336;-26.094;27.994;2023-08-06T00:02:52;85902.80;;;20.78;16.87
73974;BME280;62336;-26.094;27.994;2023-08-06T00:05:17;85899.68;;;20.22;16.79
73974;BME280;62336;-26.094;27.994;2023-08-06T00:07:43;85896.76;;;20.24;17.04
73974;BME280;62336;-26.094;27.994;2023-08-06T00:10:09;85898.27;;;20.30;16.96
73974;BME280;62336;-26.094;27.994;2023-08-06T00:12:34;85894.98;;;20.33;17.10
73974;BME280;62336;-26.094;27.994;2023-08-06T00:15:00;85892.61;;;20.22;16.93
73974;BME280;62336;-26.094;27.994;2023-08-06T00:17:25;85892.66;;;20.34;16.99
73974;BME280;62336;-26.094;27.994;2023-08-06T00:19:50;85886.54;;;20.24;16.92
73974;BME280;62336;-26.094;27.994;2023-08-06T00:22:16;85885.35;;;20.37;16.76
73974;BME280;62336;-26.094;27.994;2023-08-06T00:24:42;85882.52;;;20.26;17.01
73974;BME280;62336;-26.094;27.994;2023-08-06T00:27:07;85883.15;;;20.28;16.93
73974;BME280;62336;-26.094;27.994;2023-08-06T00:29:32;85881.56;;;20.04;17.17
73974;BME280;62336;-26.094;27.994;2023-08-06T00:31:57;85882.44;;;20.69;16.86
73974;BME280;62336;-26.094;27.994;2023-08-06T00:34:23;85878.48;;;20.42;17.06
73974;BME280;62336;-26.094;27.994;2023-08-06T00:36:48;85878.68;;;19.85;17.42
73974;BME280;62336;-26.094;27.994;2023-08-06T00:39:13;85880.93;;;19.72;17.36
73974;BME280;62336;-26.094;27.994;2023-08-06T00:41:39;85875.59;;;19.92;17.27
73974;BME280;62336;-26.094;27.994;2023-08-06T00:44:04;85871.97;;;19.92;17.32
73974;BME280;62336;-26.094;27.994;2023-08-06T00:46:30;85866.19;;;19.83;17.41
73974;BME280;62336;-26.094;27.994;2023-08-06T00:48:56;85862.97;;;19.44;17.61
73974;BME280;62336;-26.094;27.994;2023-08-06T00:51:20;85862.38;;;19.40;17.58
73974;BME280;62336;-26.094;27.994;2023-08-06T00:53:45;85858.65;;;19.45;17.93
73974;BME280;62336;-26.094;27.994;2023-08-06T00:56:10;85854.54;;;19.37;17.87
73974;BME280;62336;-26.094;27.994;2023-08-06T00:58:37;85849.69;;;20.05;17.42
73974;BME280;62336;-26.094;27.994;2023-08-06T01:01:01;85850.00;;;19.16;17.81
73974;BME280;62336;-26.094;27.994;2023-08-06T01:03:27;85845.64;;;19.69;17.61
73974;BME280;62336;-26.094;27.994;2023-08-06T01:05:51;85843.87;;;19.38;17.82
73974;BME280;62336;-26.094;27.994;2023-08-06T01:08:26;85846.18;;;19.44;17.90
73974;BME280;62336;-26.094;27.994;2023-08-06T01:10:53;85845.64;;;19.93;17.54
73974;BME280;62336;-26.094;27.994;2023-08-06T01:13:16;85847.86;;;19.94;17.51
73974;BME280;62336;-26.094;27.994;2023-08-06T01:15:38;85846.99;;;19.25;17.76
73974;BME280;62336;-26.094;27.994;2023-08-06T01:17:59;85843.78;;;19.79;17.57
73974;BME280;62336;-26.094;27.994;2023-08-06T01:20:28;85849.99;;;19.54;17.70
73974;BME280;62336;-26.094;27.994;2023-08-06T01:22:49;85846.53;;;19.70;17.55
73974;BME280;62336;-26.094;27.994;2023-08-06T01:25:16;85840.84;;;20.23;17.18
73974;BME280;62336;-26.094;27.994;2023-08-06T01:27:46;85845.14;;;19.89;17.50
73974;BME280;62336;-26.094;27.994;2023-08-06T01:30:11;85844.37;;;19.52;17.45
73974;BME280;62336;-26.094;27.994;2023-08-06T01:32:34;85846.27;;;19.94;17.00
73974;BME280;62336;-26.094;27.994;2023-08-06T01:34:58;85847.67;;;19.87;17.17
73974;BME280;62336;-26.094;27.994;2023-08-06T01:37:22;85849.64;;;19.73;17.50
73974;BME280;62336;-26.094;27.994;2023-08-06T01:39:47;85850.18;;;19.95;17.14
73974;BME280;62336;-26.094;27.994;2023-08-06T01:42:13;85848.80;;;19.48;17.24
73974;BME280;62336;-26.094;27.994;2023-08-06T01:44:38;85845.62;;;19.78;17.57
73974;BME280;62336;-26.094;27.994;2023-08-06T01:47:04;85841.91;;;19.60;17.57
73974;BME280;62336;-26.094;27.994;2023-08-06T01:49:29;85838.87;;;19.62;17.67
73974;BME280;62336;-26.094;27.994;2023-08-06T01:51:55;85835.17;;;19.19;17.86
73974;BME280;62336;-26.094;27.994;2023-08-06T01:54:19;85835.81;;;19.03;17.81
73974;BME280;62336;-26.094;27.994;2023-08-06T01:56:52;85837.66;;;18.88;18.03
73974;BME280;62336;-26.094;27.994;2023-08-06T01:59:11;85836.11;;;19.11;17.87
73974;BME280;62336;-26.094;27.994;2023-08-06T02:01:36;85835.92;;;19.53;17.35
73974;BME280;62336;-26.094;27.994;2023-08-06T02:04:01;85834.71;;;18.85;17.99
73974;BME280;62336;-26.094;27.994;2023-08-06T02:06:26;85834.59;;;19.13;17.95
73974;BME280;62336;-26.094;27.994;2023-08-06T02:09:03;85835.51;;;18.93;17.98
73974;BME280;62336;-26.094;27.994;2023-08-06T02:11:18;85837.45;;;19.11;18.01
73974;BME280;62336;-26.094;27.994;2023-08-06T02:13:43;85839.59;;;19.05;18.03
73974;BME280;62336;-26.094;27.994;2023-08-06T02:16:08;85842.56;;;19.52;17.78
73974;BME280;62336;-26.094;27.994;2023-08-06T02:18:33;85840.62;;;19.02;18.00
73974;BME280;62336;-26.094;27.994;2023-08-06T02:20:59;85841.14;;;19.40;17.72
73974;BME280;62336;-26.094;27.994;2023-08-06T02:23:27;85839.84;;;19.17;17.78
73974;BME280;62336;-26.094;27.994;2023-08-06T02:25:58;85841.58;;;19.07;17.83
73974;BME280;62336;-26.094;27.994;2023-08-06T02:28:15;85845.29;;;18.92;17.40
73974;BME280;62336;-26.094;27.994;2023-08-06T02:30:49;85850.06;;;18.58;18.10
73974;BME280;62336;-26.094;27.994;2023-08-06T02:33:06;85844.12;;;18.65;18.13
73974;BME280;62336;-26.094;27.994;2023-08-06T02:35:32;85847.22;;;18.82;18.36
73974;BME280;62336;-26.094;27.994;2023-08-06T02:37:58;85850.62;;;18.91;18.27
73974;BME280;62336;-26.094;27.994;2023-08-06T02:40:23;85853.35;;;18.40;18.27
73974;BME280;62336;-26.094;27.994;2023-08-06T02:42:48;85853.64;;;18.26;18.26
73974;BME280;62336;-26.094;27.994;2023-08-06T02:45:14;85857.87;;;18.52;18.11
73974;BME280;62336;-26.094;27.994;2023-08-06T02:47:40;85860.09;;;18.92;18.39
73974;BME280;62336;-26.094;27.994;2023-08-06T02:50:06;85860.26;;;19.01;18.23
73974;BME280;62336;-26.094;27.994;2023-08-06T02:52:31;85857.06;;;18.74;17.86
73974;BME280;62336;-26.094;27.994;2023-08-06T02:54:56;85856.86;;;18.96;17.88
73974;BME280;62336;-26.094;27.994;2023-08-06T02:57:21;85855.36;;;19.07;18.10
73974;BME280;62336;-26.094;27.994;2023-08-06T02:59:47;85858.01;;;18.88;17.89
73974;BME280;62336;-26.094;27.994;2023-08-06T03:02:12;85864.57;;;19.08;18.29
73974;BME280;62336;-26.094;27.994;2023-08-06T03:04:37;85863.54;;;18.41;18.18
73974;BME280;62336;-26.094;27.994;2023-08-06T03:07:03;85867.92;;;18.80;17.96
73974;BME280;62336;-26.094;27.994;2023-08-06T03:09:28;85867.31;;;18.44;18.12
73974;BME280;62336;-26.094;27.994;2023-08-06T03:11:55;85872.20;;;18.19;18.45
73974;BME280;62336;-26.094;27.994;2023-08-06T03:14:19;85873.09;;;18.61;18.28
73974;BME280;62336;-26.094;27.994;2023-08-06T03:16:44;85878.95;;;18.14;18.24
73974;BME280;62336;-26.094;27.994;2023-08-06T03:19:10;85881.48;;;19.02;18.13
73974;BME280;62336;-26.094;27.994;2023-08-06T03:21:35;85880.71;;;18.83;17.84
73974;BME280;62336;-26.094;27.994;2023-08-06T03:24:00;85883.13;;;19.21;17.66
73974;BME280;62336;-26.094;27.994;2023-08-06T03:26:25;85884.78;;;18.95;17.44
73974;BME280;62336;-26.094;27.994;2023-08-06T03:28:51;85887.29;;;18.88;17.72
73974;BME280;62336;-26.094;27.994;2023-08-06T03:31:16;85889.23;;;18.98;17.80
73974;BME280;62336;-26.094;27.994;2023-08-06T03:33:42;85890.47;;;18.34;17.84
73974;BME280;62336;-26.094;27.994;2023-08-06T03:36:09;85892.74;;;18.39;18.37
73974;BME280;62336;-26.094;27.994;2023-08-06T03:38:33;85889.90;;;18.13;18.17
73974;BME280;62336;-26.094;27.994;2023-08-06T03:40:59;85893.35;;;18.52;18.31
73974;BME280;62336;-26.094;27.994;2023-08-06T03:43:24;85897.96;;;18.41;18.45
73974;BME280;62336;-26.094;27.994;2023-08-06T03:45:50;85900.94;;;18.49;18.02
73974;BME280;62336;-26.094;27.994;2023-08-06T03:48:16;85904.25;;;18.16;18.32
73974;BME280;62336;-26.094;27.994;2023-08-06T03:50:41;85904.52;;;18.35;18.37
73974;BME280;62336;-26.094;27.994;2023-08-06T03:53:07;85903.82;;;18.43;18.40
73974;BME280;62336;-26.094;27.994;2023-08-06T03:55:32;85902.26;;;18.51;18.42
73974;BME280;62336;-26.094;27.994;2023-08-06T03:57:57;85904.99;;;18.60;18.00
73974;BME280;62336;-26.094;27.994;2023-08-06T04:00:23;85909.77;;;18.53;17.85
73974;BME280;62336;-26.094;27.994;2023-08-06T04:02:48;85911.19;;;18.51;18.41
73974;BME280;62336;-26.094;27.994;2023-08-06T04:05:13;85907.55;;;18.09;18.36
73974;BME280;62336;-26.094;27.994;2023-08-06T04:07:38;85907.14;;;17.97;18.70
73974;BME280;62336;-26.094;27.994;2023-08-06T04:10:05;85910.17;;;18.15;18.58
73974;BME280;62336;-26.094;27.994;2023-08-06T04:12:30;85906.33;;;18.45;18.21
73974;BME280;62336;-26.094;27.994;2023-08-06T04:14:57;85906.57;;;18.55;18.18
73974;BME280;62336;-26.094;27.994;2023-08-06T04:17:19;85909.47;;;18.65;18.00
73974;BME280;62336;-26.094;27.994;2023-08-06T04:19:45;85910.38;;;18.67;18.25
73974;BME280;62336;-26.094;27.994;2023-08-06T04:22:10;85914.05;;;18.43;17.89
73974;BME280;62336;-26.094;27.994;2023-08-06T04:24:36;85915.73;;;18.75;17.89
73974;BME280;62336;-26.094;27.994;2023-08-06T04:27:01;85918.08;;;18.70;18.05
73974;BME280;62336;-26.094;27.994;2023-08-06T04:29:26;85919.56;;;18.57;18.26
73974;BME280;62336;-26.094;27.994;2023-08-06T04:31:52;85922.90;;;18.39;18.29
73974;BME280;62336;-26.094;27.994;2023-08-06T04:34:17;85924.36;;;18.67;18.09
73974;BME280;62336;-26.094;27.994;2023-08-06T04:36:42;85928.01;;;18.38;18.33
73974;BME280;62336;-26.094;27.994;2023-08-06T04:39:07;85928.24;;;18.42;18.04
73974;BME280;62336;-26.094;27.994;2023-08-06T04:41:33;85928.38;;;17.76;18.54
73974;BME280;62336;-26.094;27.994;2023-08-06T04:43:58;85934.86;;;17.49;18.69
73974;BME280;62336;-26.094;27.994;2023-08-06T04:46:23;85936.27;;;17.71;18.58
73974;BME280;62336;-26.094;27.994;2023-08-06T04:48:49;85934.61;;;17.95;18.54
73974;BME280;62336;-26.094;27.994;2023-08-06T04:51:14;85930.03;;;18.30;18.47
73974;BME280;62336;-26.094;27.994;2023-08-06T04:53:40;85928.79;;;17.96;18.39
73974;BME280;62336;-26.094;27.994;2023-08-06T04:56:04;85929.27;;;18.61;18.10
73974;BME280;62336;-26.094;27.994;2023-08-06T04:58:29;85936.68;;;18.02;18.44
73974;BME280;62336;-26.094;27.994;2023-08-06T05:00:55;85938.78;;;18.03;18.57
73974;BME280;62336;-26.094;27.994;2023-08-06T05:03:20;85935.69;;;18.70;18.13
73974;BME280;62336;-26.094;27.994;2023-08-06T05:05:46;85937.35;;;18.70;17.61
73974;BME280;62336;-26.094;27.994;2023-08-06T05:08:14;85936.77;;;18.44;17.72
73974;BME280;62336;-26.094;27.994;2023-08-06T05:10:35;85937.44;;;19.19;17.77
73974;BME280;62336;-26.094;27.994;2023-08-06T05:13:00;85938.23;;;18.84;17.78
73974;BME280;62336;-26.094;27.994;2023-08-06T05:15:25;85940.96;;;19.27;17.73
73974;BME280;62336;-26.094;27.994;2023-08-06T05:17:51;85940.17;;;18.91;17.88
73974;BME280;62336;-26.094;27.994;2023-08-06T05:20:16;85942.49;;;18.20;18.07
73974;BME280;62336;-26.094;27.994;2023-08-06T05:22:43;85944.13;;;18.35;18.23
73974;BME280;62336;-26.094;27.994;2023-08-06T05:25:07;85947.42;;;17.80;18.19
73974;BME280;62336;-26.094;27.994;2023-08-06T05:27:31;85947.99;;;18.00;18.41
73974;BME280;62336;-26.094;27.994;2023-08-06T05:29:57;85949.31;;;17.94;18.17
73974;BME280;62336;-26.094;27.994;2023-08-06T05:32:22;85945.84;;;18.34;18.42
73974;BME280;62336;-26.094;27.994;2023-08-06T05:34:48;85948.21;;;18.21;18.45
73974;BME280;62336;-26.094;27.994;2023-08-06T05:37:13;85948.61;;;17.69;18.73
73974;BME280;62336;-26.094;27.994;2023-08-06T05:39:38;85947.04;;;17.92;18.66
73974;BME280;62336;-26.094;27.994;2023-08-06T05:42:04;85948.33;;;18.29;18.47
73974;BME280;62336;-26.094;27.994;2023-08-06T05:44:29;85945.19;;;18.50;18.27
73974;BME280;62336;-26.094;27.994;2023-08-06T05:46:56;85946.28;;;18.36;18.25
73974;BME280;62336;-26.094;27.994;2023-08-06T05:49:20;85945.68;;;18.73;18.05
73974;BME280;62336;-26.094;27.994;2023-08-06T05:51:45;85948.72;;;18.91;17.99
73974;BME280;62336;-26.094;27.994;2023-08-06T05:54:10;85950.39;;;19.27;17.95
73974;BME280;62336;-26.094;27.994;2023-08-06T05:56:36;85954.41;;;19.42;17.73
73974;BME280;62336;-26.094;27.994;2023-08-06T05:59:01;85953.15;;;19.39;17.54
73974;BME280;62336;-26.094;27.994;2023-08-06T06:01:26;85953.60;;;19.74;17.59
73974;BME280;62336;-26.094;27.994;2023-08-06T06:03:51;85955.34;;;20.39;17.38
73974;BME280;62336;-26.094;27.994;2023-08-06T06:06:17;85959.68;;;20.72;16.94
73974;BME280;62336;-26.094;27.994;2023-08-06T06:08:42;85960.35;;;21.20;16.84
73974;BME280;62336;-26.094;27.994;2023-08-06T06:11:08;85963.82;;;20.67;16.82
73974;BME280;62336;-26.094;27.994;2023-08-06T06:13:34;85966.95;;;21.03;16.52
73974;BME280;62336;-26.094;27.994;2023-08-06T06:15:58;85966.39;;;21.32;16.06
73974;BME280;62336;-26.094;27.994;2023-08-06T06:18:24;85970.86;;;21.22;15.80
73974;BME280;62336;-26.094;27.994;2023-08-06T06:20:49;85972.34;;;21.43;15.87
73974;BME280;62336;-26.094;27.994;2023-08-06T06:23:14;85972.87;;;21.72;15.58
73974;BME280;62336;-26.094;27.994;2023-08-06T06:25:43;85975.18;;;21.86;15.37
73974;BME280;62336;-26.094;27.994;2023-08-06T06:28:05;85976.31;;;21.85;15.19
73974;BME280;62336;-26.094;27.994;2023-08-06T06:30:30;85979.29;;;22.32;14.75
73974;BME280;62336;-26.094;27.994;2023-08-06T06:32:55;85979.75;;;21.82;14.94
73974;BME280;62336;-26.094;27.994;2023-08-06T06:35:20;85981.93;;;22.38;14.61
73974;BME280;62336;-26.094;27.994;2023-08-06T06:37:45;85982.76;;;22.11;14.93
73974;BME280;62336;-26.094;27.994;2023-08-06T06:40:12;85983.49;;;22.38;14.59
73974;BME280;62336;-26.094;27.994;2023-08-06T06:42:37;85986.90;;;22.16;14.99
73974;BME280;62336;-26.094;27.994;2023-08-06T06:45:01;85988.67;;;22.52;14.63
73974;BME280;62336;-26.094;27.994;2023-08-06T06:47:26;85988.59;;;22.87;14.51
73974;BME280;62336;-26.094;27.994;2023-08-06T06:49:52;85994.13;;;22.62;14.82
73974;BME280;62336;-26.094;27.994;2023-08-06T06:52:17;85990.78;;;22.80;14.35
73974;BME280;62336;-26.094;27.994;2023-08-06T06:54:41;85992.01;;;23.07;14.54
73974;BME280;62336;-26.094;27.994;2023-08-06T06:57:07;85990.50;;;22.80;14.35
73974;BME280;62336;-26.094;27.994;2023-08-06T06:59:32;85993.40;;;23.00;14.38
73974;BME280;62336;-26.094;27.994;2023-08-06T07:01:58;85999.35;;;23.58;13.99
73974;BME280;62336;-26.094;27.994;2023-08-06T07:04:23;85999.02;;;23.23;13.82
73974;BME280;62336;-26.094;27.994;2023-08-06T07:06:48;85998.10;;;23.31;13.92
73974;BME280;62336;-26.094;27.994;2023-08-06T07:09:13;86004.11;;;23.32;13.58
73974;BME280;62336;-26.094;27.994;2023-08-06T07:11:38;86008.03;;;23.75;13.65
73974;BME280;62336;-26.094;27.994;2023-08-06T07:14:04;86006.41;;;23.90;13.53
73974;BME280;62336;-26.094;27.994;2023-08-06T07:16:28;86007.02;;;24.28;13.10
73974;BME280;62336;-26.094;27.994;2023-08-06T07:18:55;86006.49;;;24.63;13.14
73974;BME280;62336;-26.094;27.994;2023-08-06T07:21:19;86009.70;;;24.63;12.79
73974;BME280;62336;-26.094;27.994;2023-08-06T07:23:43;86015.11;;;24.21;13.08
73974;BME280;62336;-26.094;27.994;2023-08-06T07:26:09;86014.49;;;24.38;12.89
73974;BME280;62336;-26.094;27.994;2023-08-06T07:28:34;86019.45;;;24.25;13.06
73974;BME280;62336;-26.094;27.994;2023-08-06T07:30:59;86018.16;;;24.45;13.07
73974;BME280;62336;-26.094;27.994;2023-08-06T07:33:24;86017.89;;;24.63;12.89
73974;BME280;62336;-26.094;27.994;2023-08-06T07:35:49;86020.41;;;25.24;12.73
73974;BME280;62336;-26.094;27.994;2023-08-06T07:38:14;86020.87;;;24.54;12.88
73974;BME280;62336;-26.094;27.994;2023-08-06T07:40:40;86021.20;;;24.66;13.19
73974;BME280;62336;-26.094;27.994;2023-08-06T07:43:05;86021.20;;;25.16;12.81
73974;BME280;62336;-26.094;27.994;2023-08-06T07:45:33;86020.37;;;25.16;12.45
73974;BME280;62336;-26.094;27.994;2023-08-06T07:47:56;86018.88;;;25.65;12.23
73974;BME280;62336;-26.094;27.994;2023-08-06T07:50:21;86026.96;;;25.75;12.12
73974;BME280;62336;-26.094;27.994;2023-08-06T07:52:46;86024.20;;;25.71;12.23
73974;BME280;62336;-26.094;27.994;2023-08-06T07:55:11;86023.17;;;26.21;12.05
73974;BME280;62336;-26.094;27.994;2023-08-06T07:57:37;86019.53;;;25.99;12.28
73974;BME280;62336;-26.094;27.994;2023-08-06T08:00:03;86016.78;;;25.83;12.31
73974;BME280;62336;-26.094;27.994;2023-08-06T08:02:28;86013.73;;;25.71;12.23
73974;BME280;62336;-26.094;27.994;2023-08-06T08:04:53;86014.16;;;26.03;12.41
73974;BME280;62336;-26.094;27.994;2023-08-06T08:07:18;86015.11;;;25.77;12.34
73974;BME280;62336;-26.094;27.994;2023-08-06T08:09:43;86014.86;;;26.61;11.85
73974;BME280;62336;-26.094;27.994;2023-08-06T08:12:09;86012.78;;;26.33;12.54
73974;BME280;62336;-26.094;27.994;2023-08-06T08:14:34;86013.54;;;25.88;12.50
73974;BME280;62336;-26.094;27.994;2023-08-06T08:16:59;86009.50;;;26.47;11.97
73974;BME280;62336;-26.094;27.994;2023-08-06T08:19:24;86004.41;;;26.37;12.08
73974;BME280;62336;-26.094;27.994;2023-08-06T08:21:49;86005.48;;;26.46;12.01
73974;BME280;62336;-26.094;27.994;2023-08-06T08:24:15;86008.14;;;26.45;12.07
73974;BME280;62336;-26.094;27.994;2023-08-06T08:26:40;86005.72;;;26.73;12.01
73974;BME280;62336;-26.094;27.994;2023-08-06T08:29:05;86002.45;;;26.39;11.90
73974;BME280;62336;-26.094;27.994;2023-08-06T08:31:31;86002.23;;;26.25;11.89
73974;BME280;62336;-26.094;27.994;2023-08-06T08:33:57;85995.73;;;27.72;11.37
73974;BME280;62336;-26.094;27.994;2023-08-06T08:36:21;85997.72;;;27.15;11.98
73974;BME280;62336;-26.094;27.994;2023-08-06T08:38:47;85997.17;;;27.00;11.50
73974;BME280;62336;-26.094;27.994;2023-08-06T08:41:12;85998.42;;;26.65;11.69
73974;BME280;62336;-26.094;27.994;2023-08-06T08:43:38;85993.37;;;27.01;12.16
73974;BME280;62336;-26.094;27.994;2023-08-06T08:46:04;85986.68;;;26.98;11.84
73974;BME280;62336;-26.094;27.994;2023-08-06T08:48:28;85981.98;;;27.09;11.73
73974;BME280;62336;-26.094;27.994;2023-08-06T08:50:54;85976.83;;;27.29;11.42
73974;BME280;62336;-26.094;27.994;2023-08-06T08:53:19;85977.74;;;28.11;11.40
73974;BME280;62336;-26.094;27.994;2023-08-06T08:55:46;85970.98;;;27.22;11.24
73974;BME280;62336;-26.094;27.994;2023-08-06T08:58:10;85971.02;;;27.08;11.56
73974;BME280;62336;-26.094;27.994;2023-08-06T09:00:36;85966.69;;;27.53;11.10
73974;BME280;62336;-26.094;27.994;2023-08-06T09:03:03;85963.81;;;27.39;11.26
73974;BME280;62336;-26.094;27.994;2023-08-06T09:05:29;85962.76;;;27.15;11.13
73974;BME280;62336;-26.094;27.994;2023-08-06T09:07:53;85957.99;;;27.34;11.12
73974;BME280;62336;-26.094;27.994;2023-08-06T09:10:20;85955.80;;;27.88;11.59
73974;BME280;62336;-26.094;27.994;2023-08-06T09:12:43;85949.92;;;28.19;10.89
73974;BME280;62336;-26.094;27.994;2023-08-06T09:15:09;85953.76;;;28.26;10.42
73974;BME280;62336;-26.094;27.994;2023-08-06T09:17:35;85950.31;;;28.19;10.60
73974;BME280;62336;-26.094;27.994;2023-08-06T09:20:02;85946.48;;;28.30;10.24
73974;BME280;62336;-26.094;27.994;2023-08-06T09:22:25;85941.86;;;28.97;9.65
73974;BME280;62336;-26.094;27.994;2023-08-06T09:24:50;85939.23;;;28.67;9.82
73974;BME280;62336;-26.094;27.994;2023-08-06T09:27:16;85936.00;;;28.61;9.94
73974;BME280;62336;-26.094;27.994;2023-08-06T09:29:41;85932.29;;;28.51;9.94
73974;BME280;62336;-26.094;27.994;2023-08-06T09:32:06;85929.57;;;28.38;10.62
73974;BME280;62336;-26.094;27.994;2023-08-06T09:34:31;85924.43;;;28.49;10.55
73974;BME280;62336;-26.094;27.994;2023-08-06T09:36:57;85917.02;;;28.65;10.05
73974;BME280;62336;-26.094;27.994;2023-08-06T09:39:28;85912.42;;;28.50;10.22
73974;BME280;62336;-26.094;27.994;2023-08-06T09:41:48;85907.10;;;28.92;10.15
73974;BME280;62336;-26.094;27.994;2023-08-06T09:44:17;85900.31;;;28.79;10.46
73974;BME280;62336;-26.094;27.994;2023-08-06T09:46:39;85894.81;;;28.38;10.31
73974;BME280;62336;-26.094;27.994;2023-08-06T09:49:06;85888.37;;;28.98;9.91
73974;BME280;62336;-26.094;27.994;2023-08-06T09:51:32;85887.67;;;28.51;10.03
73974;BME280;62336;-26.094;27.994;2023-08-06T09:53:56;85882.77;;;29.41;9.56
73974;BME280;62336;-26.094;27.994;2023-08-06T09:56:22;85875.19;;;29.39;9.64
73974;BME280;62336;-26.094;27.994;2023-08-06T09:58:49;85871.66;;;29.32;9.46
73974;BME280;62336;-26.094;27.994;2023-08-06T10:01:13;85866.31;;;29.26;9.36
73974;BME280;62336;-26.094;27.994;2023-08-06T10:03:39;85871.01;;;29.18;9.11
73974;BME280;62336;-26.094;27.994;2023-08-06T10:06:05;85865.78;;;29.27;9.30
73974;BME280;62336;-26.094;27.994;2023-08-06T10:08:29;85862.83;;;29.15;9.41
73974;BME280;62336;-26.094;27.994;2023-08-06T10:10:55;85861.12;;;30.12;9.16
73974;BME280;62336;-26.094;27.994;2023-08-06T10:13:21;85856.81;;;30.00;9.56
73974;BME280;62336;-26.094;27.994;2023-08-06T10:15:46;85852.93;;;29.49;8.97
73974;BME280;62336;-26.094;27.994;2023-08-06T10:18:11;85849.22;;;29.41;9.28
73974;BME280;62336;-26.094;27.994;2023-08-06T10:20:36;85843.48;;;29.23;9.00
73974;BME280;62336;-26.094;27.994;2023-08-06T10:23:02;85841.28;;;29.18;9.12
73974;BME280;62336;-26.094;27.994;2023-08-06T10:25:31;85834.50;;;30.53;8.79
73974;BME280;62336;-26.094;27.994;2023-08-06T10:27:56;85829.69;;;30.14;8.57
73974;BME280;62336;-26.094;27.994;2023-08-06T10:30:23;85826.91;;;29.81;9.31
73974;BME280;62336;-26.094;27.994;2023-08-06T10:32:48;85823.20;;;29.78;8.95
73974;BME280;62336;-26.094;27.994;2023-08-06T10:37:37;85820.16;;;29.67;9.75
73974;BME280;62336;-26.094;27.994;2023-08-06T10:40:00;85814.23;;;29.75;9.46
73974;BME280;62336;-26.094;27.994;2023-08-06T10:42:28;85813.03;;;30.17;9.31
73974;BME280;62336;-26.094;27.994;2023-08-06T10:47:26;85803.22;;;30.65;8.30
73974;BME280;62336;-26.094;27.994;2023-08-06T10:49:41;85797.81;;;30.19;8.61
73974;BME280;62336;-26.094;27.994;2023-08-06T10:52:07;85796.59;;;30.88;8.17
73974;BME280;62336;-26.094;27.994;2023-08-06T10:54:32;85790.97;;;30.73;8.08
73974;BME280;62336;-26.094;27.994;2023-08-06T10:56:57;85783.50;;;30.25;8.69
73974;BME280;62336;-26.094;27.994;2023-08-06T10:59:22;85780.50;;;30.51;8.26
73974;BME280;62336;-26.094;27.994;2023-08-06T11:01:47;85780.40;;;30.99;8.00
73974;BME280;62336;-26.094;27.994;2023-08-06T11:04:13;85778.51;;;29.85;8.29
73974;BME280;62336;-26.094;27.994;2023-08-06T11:06:37;85778.01;;;29.89;8.37
73974;BME280;62336;-26.094;27.994;2023-08-06T11:09:06;85778.01;;;30.09;8.53
73974;BME280;62336;-26.094;27.994;2023-08-06T11:11:28;85773.53;;;30.60;8.18
73974;BME280;62336;-26.094;27.994;2023-08-06T11:13:54;85773.97;;;30.40;8.62
73974;BME280;62336;-26.094;27.994;2023-08-06T11:16:20;85777.41;;;30.34;9.61
73974;BME280;62336;-26.094;27.994;2023-08-06T11:18:44;85766.78;;;30.29;8.44
73974;BME280;62336;-26.094;27.994;2023-08-06T11:21:10;85766.45;;;30.41;8.48
73974;BME280;62336;-26.094;27.994;2023-08-06T11:23:35;85759.15;;;30.24;8.25
73974;BME280;62336;-26.094;27.994;2023-08-06T11:26:01;85757.36;;;30.62;8.31
73974;BME280;62336;-26.094;27.994;2023-08-06T11:28:26;85753.84;;;30.51;8.44
73974;BME280;62336;-26.094;27.994;2023-08-06T11:30:51;85751.56;;;31.03;8.30
73974;BME280;62336;-26.094;27.994;2023-08-06T11:33:21;85745.23;;;31.07;8.54
73974;BME280;62336;-26.094;27.994;2023-08-06T11:35:42;85743.69;;;31.69;7.55
73974;BME280;62336;-26.094;27.994;2023-08-06T11:38:07;85738.63;;;31.00;8.21
73974;BME280;62336;-26.094;27.994;2023-08-06T11:40:33;85741.43;;;31.05;7.98
73974;BME280;62336;-26.094;27.994;2023-08-06T11:42:59;85734.83;;;30.65;7.79
73974;BME280;62336;-26.094;27.994;2023-08-06T11:45:24;85736.19;;;31.32;7.32
73974;BME280;62336;-26.094;27.994;2023-08-06T11:47:51;85732.47;;;31.73;7.23
73974;BME280;62336;-26.094;27.994;2023-08-06T11:50:22;85729.70;;;31.85;7.14
73974;BME280;62336;-26.094;27.994;2023-08-06T11:52:40;85731.69;;;31.41;7.44
73974;BME280;62336;-26.094;27.994;2023-08-06T11:55:05;85729.04;;;31.42;7.22
73974;BME280;62336;-26.094;27.994;2023-08-06T11:57:30;85723.29;;;31.33;6.78
73974;BME280;62336;-26.094;27.994;2023-08-06T11:59:55;85719.18;;;31.28;7.42
73974;BME280;62336;-26.094;27.994;2023-08-06T12:02:22;85713.66;;;31.48;7.73
73974;BME280;62336;-26.094;27.994;2023-08-06T12:04:59;85709.75;;;31.97;7.29
73974;BME280;62336;-26.094;27.994;2023-08-06T12:07:10;85707.78;;;31.89;7.33
73974;BME280;62336;-26.094;27.994;2023-08-06T12:09:36;85710.73;;;30.86;7.36
73974;BME280;62336;-26.094;27.994;2023-08-06T12:12:02;85711.92;;;30.93;7.41
73974;BME280;62336;-26.094;27.994;2023-08-06T12:14:27;85705.55;;;31.64;6.90
73974;BME280;62336;-26.094;27.994;2023-08-06T12:16:54;85703.20;;;32.23;7.40
73974;BME280;62336;-26.094;27.994;2023-08-06T12:19:18;85703.31;;;31.28;7.26
73974;BME280;62336;-26.094;27.994;2023-08-06T12:21:43;85704.09;;;31.78;7.12
73974;BME280;62336;-26.094;27.994;2023-08-06T12:24:08;85704.23;;;31.20;7.45
73974;BME280;62336;-26.094;27.994;2023-08-06T12:26:33;85697.88;;;31.11;7.12
73974;BME280;62336;-26.094;27.994;2023-08-06T12:29:00;85694.23;;;31.54;7.32
73974;BME280;62336;-26.094;27.994;2023-08-06T12:31:24;85698.11;;;31.43;7.01
73974;BME280;62336;-26.094;27.994;2023-08-06T12:33:50;85694.70;;;31.94;7.08
73974;BME280;62336;-26.094;27.994;2023-08-06T12:36:15;85692.02;;;31.97;7.23